Estación Meteorológica Peña el Pijo (Robertgarden) [ 01/30/23 15:10:35 CET ]

Fecha Hora Presion(HPa) Temp (°C) Humedad % Rocio (°C) Viento ( m/s) Direccion Lluvia 1Hora(mm) Lluvia 24H(mm) LLuvia Total(mm)
2012-Jul-14 01:01:12 1011.800 19.0 42 5.8         167.83
2012-Jul-14 02:01:14 1011.300 17.7 45 5.5         167.83
2012-Jul-14 03:10:11 1010.900 17.6 46 5.8         167.83
2012-Jul-14 04:01:48 1010.200 16.9 46 5.1         167.83
2012-Jul-14 05:03:24 1010.000 15.8 49 5.1         167.83
2012-Jul-14 06:01:16 1010.100 14.9 52 5.1         167.83
2012-Jul-14 07:01:17 1009.700 15.4 52 5.6         167.83
2012-Jul-14 08:01:16 1009.700 17.1 49 6.3         167.83
2012-Jul-14 09:01:11 1009.900 20.8 43 7.7         167.83
2012-Jul-14 10:01:13 1010.600 27.1 22 3.4 1.2 WSW     167.83
2012-Jul-14 11:01:14 1010.700 29.8 19 3.5 1.9 S     167.83
2012-Jul-14 12:01:16 1010.700 31.5 18 4.0 1.9 WSW     167.83
2012-Jul-14 13:01:18 1011.100 33.3 13 0.5         167.83
2012-Jul-14 14:01:17 1010.900 34.1 16 4.1         167.83
2012-Jul-14 15:01:19 1010.700 35.3 17 6.0         167.83
2012-Jul-14 16:01:13 1010.800 35.4 17 6.1 1.4 NE     167.83
2012-Jul-14 17:01:12 1010.600 35.9 16 5.5         167.83
2012-Jul-14 18:01:12 1010.600 35.0 17 5.8         167.83
2012-Jul-14 19:01:13 1010.900 32.8 16 3.1 1.1 E     167.83
2012-Jul-14 20:01:14 1011.000 31.3 14 -0.0 0.5 WSW     167.83
2012-Jul-14 21:01:16 1011.600 27.6 17 -0.1         167.83
2012-Jul-14 22:01:12 1012.000 23.6 26 2.8         167.83
2012-Jul-14 23:01:17 1013.100 20.4 34 3.9         167.83

Temperatura Máxima:35°    Temperatura Mínima:14°
Presión Máxima:1013.100 Hpa    Presión Mínima:1009.700 Hpa


Volver